createdAt,value
2023-05-01T00:01:30.371Z,16.51
2023-05-01T00:03:56.963Z,16.49
2023-05-01T00:06:24.131Z,16.47
2023-05-01T00:08:50.574Z,16.44
2023-05-01T00:11:17.055Z,16.45
2023-05-01T00:13:43.454Z,16.45
2023-05-01T00:16:10.839Z,16.50
2023-05-01T00:18:37.786Z,16.58
2023-05-01T00:21:04.526Z,16.53
2023-05-01T00:23:30.951Z,16.51
2023-05-01T00:25:57.421Z,16.50
2023-05-01T00:28:24.063Z,16.48
2023-05-01T00:30:50.708Z,16.49
2023-05-01T00:33:17.122Z,16.42
2023-05-01T00:35:45.016Z,16.40
2023-05-01T00:38:12.086Z,16.45
2023-05-01T00:40:45.696Z,16.38
2023-05-01T00:43:12.960Z,16.29
2023-05-01T00:45:43.773Z,16.32
2023-05-01T00:48:10.892Z,16.32
2023-05-01T00:50:38.121Z,16.28
2023-05-01T00:53:04.999Z,16.25
2023-05-01T00:55:33.025Z,16.25
2023-05-01T00:58:01.170Z,16.26
2023-05-01T01:00:29.450Z,16.23
2023-05-01T01:02:56.042Z,16.24
2023-05-01T01:05:28.292Z,16.27
2023-05-01T01:08:16.866Z,16.32
2023-05-01T01:10:52.816Z,16.32
2023-05-01T01:13:36.815Z,16.32
2023-05-01T01:16:06.710Z,16.31
2023-05-01T01:18:40.215Z,16.29
2023-05-01T01:21:19.957Z,16.22
2023-05-01T01:24:20.081Z,16.18
2023-05-01T01:27:11.902Z,16.17
2023-05-01T01:29:57.516Z,16.08
2023-05-01T01:32:56.587Z,16.05
2023-05-01T01:35:27.849Z,16.02
2023-05-01T01:38:00.448Z,15.98
2023-05-01T01:40:35.056Z,15.98
2023-05-01T01:43:05.338Z,16.07
2023-05-01T01:45:39.630Z,16.17
2023-05-01T01:48:10.728Z,16.18
2023-05-01T01:50:39.153Z,16.19
2023-05-01T01:53:08.798Z,16.18
2023-05-01T01:55:37.817Z,16.02
2023-05-01T01:58:06.658Z,15.93
2023-05-01T02:00:35.756Z,15.85
2023-05-01T02:03:03.782Z,15.88
2023-05-01T02:05:32.913Z,15.91
2023-05-01T02:08:00.584Z,15.95
2023-05-01T02:10:28.809Z,15.99
2023-05-01T02:12:58.299Z,15.99
2023-05-01T02:15:26.844Z,16.01
2023-05-01T02:17:54.047Z,15.97
2023-05-01T02:20:21.895Z,15.93
2023-05-01T02:22:50.798Z,15.89
2023-05-01T02:25:17.478Z,15.90
2023-05-01T02:27:48.942Z,15.78
2023-05-01T02:30:15.505Z,15.81
2023-05-01T02:32:42.570Z,15.66
2023-05-01T02:35:09.218Z,15.70
2023-05-01T02:37:35.788Z,15.77
2023-05-01T02:40:03.650Z,15.76
2023-05-01T02:42:32.245Z,15.77
2023-05-01T02:45:03.070Z,15.79
2023-05-01T02:47:32.208Z,15.81
2023-05-01T02:49:59.581Z,15.77
2023-05-01T02:52:26.513Z,15.66
2023-05-01T02:54:53.392Z,15.63
2023-05-01T02:57:20.438Z,15.56
2023-05-01T02:59:46.972Z,15.51
2023-05-01T03:02:13.500Z,15.57
2023-05-01T03:04:40.103Z,15.46
2023-05-01T03:07:06.600Z,15.40
2023-05-01T03:09:33.031Z,15.39
2023-05-01T03:11:59.641Z,15.41
2023-05-01T03:14:28.453Z,15.42
2023-05-01T03:16:55.884Z,15.40
2023-05-01T03:19:22.370Z,15.43
2023-05-01T03:21:48.809Z,15.45
2023-05-01T03:24:15.233Z,15.53
2023-05-01T03:26:41.622Z,15.43
2023-05-01T03:29:08.596Z,15.31
2023-05-01T03:31:35.608Z,15.25
2023-05-01T03:34:02.091Z,15.26
2023-05-01T03:36:28.558Z,15.23
2023-05-01T03:38:54.985Z,15.19
2023-05-01T03:41:21.492Z,15.18
2023-05-01T03:43:47.898Z,15.06
2023-05-01T03:46:14.394Z,15.12
2023-05-01T03:48:40.863Z,15.13
2023-05-01T03:51:07.362Z,15.09
2023-05-01T03:53:33.796Z,15.13
2023-05-01T03:56:00.209Z,15.15
2023-05-01T03:58:26.945Z,15.12
2023-05-01T04:00:56.890Z,15.11
2023-05-01T04:03:23.496Z,15.08
2023-05-01T04:05:50.054Z,15.08
2023-05-01T04:08:16.499Z,15.03
2023-05-01T04:10:42.960Z,15.06
2023-05-01T04:13:09.469Z,15.02
2023-05-01T04:15:35.898Z,15.09
2023-05-01T04:18:02.403Z,15.03
2023-05-01T04:20:28.904Z,14.99
2023-05-01T04:22:55.429Z,14.97
2023-05-01T04:25:21.910Z,15.04
2023-05-01T04:27:48.343Z,15.07
2023-05-01T04:30:14.889Z,15.05
2023-05-01T04:32:41.390Z,15.05
2023-05-01T04:35:08.912Z,15.00
2023-05-01T04:37:35.752Z,15.00
2023-05-01T04:40:02.151Z,15.03
2023-05-01T04:42:32.211Z,15.10
2023-05-01T04:45:01.666Z,15.12
2023-05-01T04:47:28.751Z,15.16
2023-05-01T04:49:55.418Z,15.17
2023-05-01T04:52:22.057Z,15.14
2023-05-01T04:54:48.723Z,15.10
2023-05-01T04:57:15.264Z,15.09
2023-05-01T04:59:41.749Z,15.09
2023-05-01T05:02:08.858Z,15.11
2023-05-01T05:04:35.387Z,15.10
2023-05-01T05:07:01.800Z,15.07
2023-05-01T05:09:28.234Z,15.11
2023-05-01T05:11:54.657Z,15.17
2023-05-01T05:14:21.593Z,15.19
2023-05-01T05:16:48.200Z,15.29
2023-05-01T05:19:15.107Z,15.30
2023-05-01T05:21:41.512Z,15.38
2023-05-01T05:24:07.966Z,15.38
2023-05-01T05:26:34.372Z,15.46
2023-05-01T05:29:00.812Z,15.42
2023-05-01T05:31:27.766Z,15.39
2023-05-01T05:33:54.342Z,15.41
2023-05-01T05:36:21.111Z,15.42
2023-05-01T05:38:47.533Z,15.37
2023-05-01T05:41:14.025Z,15.41
2023-05-01T05:43:40.475Z,15.46
2023-05-01T05:46:07.274Z,15.47
2023-05-01T05:48:33.740Z,15.52
2023-05-01T05:51:00.290Z,15.53
2023-05-01T05:53:26.744Z,15.49
2023-05-01T05:55:53.176Z,15.53
2023-05-01T05:58:23.319Z,15.53
2023-05-01T06:00:50.462Z,15.60
2023-05-01T06:03:17.668Z,15.66
2023-05-01T06:05:44.376Z,15.73
2023-05-01T06:08:11.473Z,15.68
2023-05-01T06:10:39.671Z,15.75
2023-05-01T06:13:14.132Z,15.79
2023-05-01T06:15:41.733Z,15.77
2023-05-01T06:18:08.609Z,15.82
2023-05-01T06:20:35.298Z,15.85
2023-05-01T06:23:01.718Z,15.84
2023-05-01T06:25:28.184Z,15.86
2023-05-01T06:27:54.690Z,15.95
2023-05-01T06:30:21.851Z,16.00
2023-05-01T06:32:48.871Z,16.03
2023-05-01T06:35:15.579Z,16.02
2023-05-01T06:37:42.046Z,16.01
2023-05-01T06:40:09.707Z,16.03
2023-05-01T06:42:39.786Z,16.01
2023-05-01T06:45:07.615Z,16.03
2023-05-01T06:47:34.274Z,16.03
2023-05-01T06:50:02.830Z,16.06
2023-05-01T06:52:31.056Z,16.05
2023-05-01T06:54:57.486Z,16.09
2023-05-01T06:57:23.905Z,16.09
2023-05-01T06:59:50.404Z,16.13
2023-05-01T07:02:16.915Z,16.14
2023-05-01T07:04:44.440Z,16.17
2023-05-01T07:07:11.335Z,16.23
2023-05-01T07:09:38.723Z,16.27
2023-05-01T07:12:06.363Z,16.29
2023-05-01T07:14:34.629Z,16.33
2023-05-01T07:17:01.715Z,16.31
2023-05-01T07:19:28.899Z,16.25
2023-05-01T07:21:55.408Z,16.23
2023-05-01T07:24:21.837Z,16.18
2023-05-01T07:26:48.310Z,16.23
2023-05-01T07:29:16.389Z,16.35
2023-05-01T07:31:43.377Z,16.36
2023-05-01T07:34:10.257Z,16.36
2023-05-01T07:36:36.693Z,16.44
2023-05-01T07:39:04.061Z,16.54
2023-05-01T07:41:31.618Z,16.57
2023-05-01T07:44:00.934Z,16.61
2023-05-01T07:46:27.599Z,16.62
2023-05-01T07:48:54.431Z,16.66
2023-05-01T07:51:21.207Z,16.69
2023-05-01T07:53:48.627Z,16.67
2023-05-01T07:56:15.505Z,16.69
2023-05-01T07:58:42.632Z,16.66
2023-05-01T08:01:09.201Z,16.65
2023-05-01T08:03:36.143Z,16.59
2023-05-01T08:06:02.873Z,16.63
2023-05-01T08:08:29.409Z,16.57
2023-05-01T08:10:56.249Z,16.60
2023-05-01T08:13:22.812Z,16.67
2023-05-01T08:15:49.446Z,16.66
2023-05-01T08:18:20.415Z,16.62
2023-05-01T08:20:48.115Z,16.61
2023-05-01T08:23:15.714Z,16.63
2023-05-01T08:25:42.314Z,16.73
2023-05-01T08:28:09.410Z,16.85
2023-05-01T08:30:35.901Z,16.97
2023-05-01T08:33:02.359Z,16.91
2023-05-01T08:35:29.386Z,16.85
2023-05-01T08:37:55.930Z,16.90
2023-05-01T08:40:25.834Z,17.07
2023-05-01T08:42:52.501Z,17.07
2023-05-01T08:45:21.215Z,17.03
2023-05-01T08:47:49.411Z,17.09
2023-05-01T08:50:17.539Z,17.30
2023-05-01T08:52:44.390Z,17.40
2023-05-01T08:55:13.749Z,17.36
2023-05-01T08:57:45.672Z,17.33
2023-05-01T09:00:19.071Z,17.39
2023-05-01T09:02:50.521Z,17.33
2023-05-01T09:05:18.497Z,17.32
2023-05-01T09:07:46.518Z,17.27
2023-05-01T09:10:15.835Z,17.30
2023-05-01T09:12:46.032Z,17.27
2023-05-01T09:15:12.949Z,17.22
2023-05-01T09:17:40.102Z,17.16
2023-05-01T09:20:07.787Z,17.25
2023-05-01T09:22:35.369Z,17.11
2023-05-01T09:25:03.464Z,17.16
2023-05-01T09:27:35.109Z,17.14
2023-05-01T09:30:01.586Z,17.22
2023-05-01T09:32:28.587Z,17.23
2023-05-01T09:35:08.852Z,17.22
2023-05-01T09:37:35.403Z,17.17
2023-05-01T09:40:12.761Z,17.09
2023-05-01T09:42:41.326Z,17.08
2023-05-01T09:45:15.017Z,17.14
2023-05-01T09:47:42.565Z,17.12
2023-05-01T09:50:09.919Z,17.05
2023-05-01T09:52:36.364Z,16.99
2023-05-01T09:55:18.986Z,16.96
2023-05-01T09:57:46.844Z,16.97
2023-05-01T10:00:15.554Z,17.02
2023-05-01T10:02:45.363Z,16.97
2023-05-01T10:05:12.352Z,16.83
2023-05-01T10:07:39.258Z,16.82
2023-05-01T10:10:19.421Z,16.79
2023-05-01T10:12:46.531Z,16.78
2023-05-01T10:15:24.785Z,16.81
2023-05-01T10:17:53.882Z,16.83
2023-05-01T10:20:20.967Z,16.82
2023-05-01T10:22:47.983Z,16.83
2023-05-01T10:25:15.035Z,16.93
2023-05-01T10:27:42.176Z,16.93
2023-05-01T10:30:10.065Z,17.02
2023-05-01T10:32:38.163Z,17.18
2023-05-01T10:35:15.350Z,17.18
2023-05-01T10:37:48.634Z,17.31
2023-05-01T10:40:39.994Z,17.28
2023-05-01T10:43:28.917Z,17.31
2023-05-01T10:46:07.399Z,17.40
2023-05-01T10:48:43.890Z,17.48
2023-05-01T10:51:24.392Z,17.52
2023-05-01T10:54:16.769Z,17.57
2023-05-01T10:56:44.174Z,17.70
2023-05-01T10:59:11.564Z,17.82
2023-05-01T11:01:43.256Z,17.89
2023-05-01T11:04:19.025Z,18.07
2023-05-01T11:07:08.265Z,18.28
2023-05-01T11:09:43.761Z,18.32
2023-05-01T11:12:15.624Z,18.34
2023-05-01T11:14:54.802Z,18.51
2023-05-01T11:17:39.446Z,18.45
2023-05-01T11:20:06.907Z,18.52
2023-05-01T11:22:34.616Z,18.65
2023-05-01T11:25:01.932Z,18.59
2023-05-01T11:27:28.695Z,18.51
2023-05-01T11:29:55.854Z,18.38
2023-05-01T11:32:28.230Z,18.38
2023-05-01T11:34:55.430Z,18.50
2023-05-01T11:37:44.591Z,18.38
2023-05-01T11:40:28.006Z,18.36
2023-05-01T11:43:20.807Z,18.30
2023-05-01T11:45:53.053Z,18.28
2023-05-01T11:48:20.953Z,18.29
2023-05-01T11:50:47.431Z,18.28
2023-05-01T11:53:18.516Z,18.21
2023-05-01T11:55:45.567Z,18.25
2023-05-01T11:58:12.950Z,18.31
2023-05-01T12:00:43.393Z,18.34
2023-05-01T12:03:10.311Z,18.36
2023-05-01T12:05:40.075Z,18.42
2023-05-01T12:08:12.509Z,18.37
2023-05-01T12:10:41.047Z,18.48
2023-05-01T12:13:09.007Z,18.48
2023-05-01T12:15:37.511Z,18.59
2023-05-01T12:18:05.737Z,18.61
2023-05-01T12:20:40.685Z,18.53
2023-05-01T12:23:10.527Z,18.48
2023-05-01T12:25:39.350Z,18.49
2023-05-01T12:28:18.136Z,18.32
2023-05-01T12:30:46.312Z,18.22
2023-05-01T12:33:20.340Z,18.22
2023-05-01T12:35:50.017Z,18.27
2023-05-01T12:38:23.591Z,18.26
2023-05-01T12:40:54.926Z,18.22
2023-05-01T12:43:29.563Z,18.27
2023-05-01T12:45:56.526Z,18.28
2023-05-01T12:48:23.976Z,18.33
2023-05-01T12:50:54.795Z,18.32
2023-05-01T12:53:22.517Z,18.27
2023-05-01T12:55:51.893Z,18.22
2023-05-01T12:58:18.575Z,18.22
2023-05-01T13:00:50.560Z,18.25
2023-05-01T13:03:23.696Z,18.18
2023-05-01T13:05:52.302Z,18.17
2023-05-01T13:08:34.503Z,18.18
2023-05-01T13:11:09.852Z,18.17
2023-05-01T13:13:37.594Z,18.19
2023-05-01T13:16:15.728Z,18.28
2023-05-01T13:18:47.337Z,18.38
2023-05-01T13:21:20.156Z,18.39
2023-05-01T13:24:01.269Z,18.48
2023-05-01T13:26:35.260Z,18.55
2023-05-01T13:29:03.608Z,18.63
2023-05-01T13:31:30.233Z,18.61
2023-05-01T13:33:58.954Z,18.50
2023-05-01T13:36:27.441Z,18.48
2023-05-01T13:38:56.855Z,18.48
2023-05-01T13:41:25.931Z,18.44
2023-05-01T13:43:55.070Z,18.48
2023-05-01T13:46:23.439Z,18.40
2023-05-01T13:48:50.455Z,18.47
2023-05-01T13:51:23.049Z,18.48
2023-05-01T13:53:50.332Z,18.26
2023-05-01T13:56:16.862Z,18.21
2023-05-01T13:58:43.423Z,18.11
2023-05-01T14:01:15.727Z,18.05
2023-05-01T14:03:43.335Z,18.08
2023-05-01T14:06:12.943Z,18.12
2023-05-01T14:08:39.659Z,18.08
2023-05-01T14:11:07.780Z,18.06
2023-05-01T14:13:35.912Z,17.98
2023-05-01T14:16:26.114Z,17.88
2023-05-01T14:18:56.798Z,17.90
2023-05-01T14:21:27.460Z,17.99
2023-05-01T14:23:55.191Z,18.04
2023-05-01T14:26:23.963Z,18.06
2023-05-01T14:28:51.017Z,17.99
2023-05-01T14:31:27.549Z,18.00
2023-05-01T14:33:58.732Z,18.01
2023-05-01T14:36:25.640Z,17.87
2023-05-01T14:38:53.127Z,17.82
2023-05-01T14:41:22.718Z,17.88
2023-05-01T14:43:53.245Z,17.88
2023-05-01T14:46:31.634Z,17.75
2023-05-01T14:48:59.706Z,17.74
2023-05-01T14:51:27.337Z,17.74
2023-05-01T14:53:54.674Z,17.72
2023-05-01T14:56:21.697Z,17.67
2023-05-01T14:58:49.976Z,17.60
2023-05-01T15:01:23.296Z,17.63
2023-05-01T15:03:53.244Z,17.65
2023-05-01T15:06:20.197Z,17.66
2023-05-01T15:08:47.240Z,17.54
2023-05-01T15:11:18.706Z,17.51
2023-05-01T15:13:46.238Z,17.47
2023-05-01T15:16:16.805Z,17.46
2023-05-01T15:18:46.511Z,17.43
2023-05-01T15:21:15.393Z,17.29
2023-05-01T15:23:45.322Z,17.25
2023-05-01T15:26:17.942Z,17.19
2023-05-01T15:29:04.061Z,17.20
2023-05-01T15:34:17.445Z,17.02
2023-05-01T15:36:44.102Z,17.01
2023-05-01T15:39:11.948Z,17.02
2023-05-01T15:41:38.913Z,17.04
2023-05-01T15:44:10.787Z,17.01
2023-05-01T15:46:38.190Z,16.95
2023-05-01T15:49:09.462Z,16.97
2023-05-01T15:51:36.520Z,17.01
2023-05-01T15:54:03.856Z,16.98
2023-05-01T15:56:34.664Z,16.87
2023-05-01T15:59:06.847Z,16.87
2023-05-01T16:01:39.668Z,16.87
2023-05-01T16:04:06.498Z,16.90
2023-05-01T16:06:35.065Z,16.82
2023-05-01T16:09:11.071Z,16.69
2023-05-01T16:11:45.291Z,16.60
2023-05-01T16:14:20.935Z,16.41
2023-05-01T16:16:48.763Z,16.34
2023-05-01T16:19:24.152Z,16.23
2023-05-01T16:21:51.782Z,16.20
2023-05-01T16:24:19.722Z,16.21
2023-05-01T16:26:46.468Z,16.08
2023-05-01T16:29:13.131Z,16.00
2023-05-01T16:31:49.946Z,15.98
2023-05-01T16:34:20.950Z,16.00
2023-05-01T16:36:47.560Z,15.97
2023-05-01T16:39:16.284Z,16.01
2023-05-01T16:41:45.862Z,16.07
2023-05-01T16:44:15.076Z,16.06
2023-05-01T16:46:42.700Z,16.08
2023-05-01T16:49:13.671Z,15.94
2023-05-01T16:51:42.132Z,15.95
2023-05-01T16:54:08.703Z,16.03
2023-05-01T16:56:35.243Z,16.01
2023-05-01T16:59:01.795Z,16.04
2023-05-01T17:01:28.396Z,16.00
2023-05-01T17:03:55.059Z,15.99
2023-05-01T17:06:21.740Z,15.95
2023-05-01T17:08:48.242Z,15.93
2023-05-01T17:11:15.523Z,16.00
2023-05-01T17:13:41.965Z,16.06
2023-05-01T17:16:08.538Z,15.99
2023-05-01T17:18:35.019Z,15.99
2023-05-01T17:21:01.452Z,15.98
2023-05-01T17:23:30.865Z,16.06
2023-05-01T17:25:57.392Z,15.96
2023-05-01T17:28:24.484Z,15.94
2023-05-01T17:30:50.916Z,15.93
2023-05-01T17:33:17.459Z,15.89
2023-05-01T17:35:44.679Z,15.85
2023-05-01T17:38:11.176Z,15.82
2023-05-01T17:40:37.676Z,15.88
2023-05-01T17:43:04.255Z,15.91
2023-05-01T17:45:30.758Z,15.92
2023-05-01T17:47:58.308Z,15.95
2023-05-01T17:50:24.901Z,15.89
2023-05-01T17:52:51.392Z,15.94
2023-05-01T17:55:18.435Z,15.93
2023-05-01T17:57:45.910Z,15.87
2023-05-01T18:00:12.889Z,15.85
2023-05-01T18:02:39.664Z,15.77
2023-05-01T18:05:06.798Z,15.75
2023-05-01T18:07:33.199Z,15.74
2023-05-01T18:09:59.924Z,15.71
2023-05-01T18:12:26.842Z,15.72
2023-05-01T18:14:53.609Z,15.58
2023-05-01T18:17:22.021Z,15.52
2023-05-01T18:19:50.833Z,15.47
2023-05-01T18:22:17.277Z,15.49
2023-05-01T18:24:43.857Z,15.52
2023-05-01T18:27:10.318Z,15.48
2023-05-01T18:29:37.050Z,15.38
2023-05-01T18:32:03.903Z,15.33
2023-05-01T18:34:30.391Z,15.25
2023-05-01T18:36:56.825Z,15.16
2023-05-01T18:39:23.343Z,15.11
2023-05-01T18:41:50.497Z,15.11
2023-05-01T18:44:17.608Z,15.03
2023-05-01T18:46:44.213Z,14.90
2023-05-01T18:49:11.087Z,14.82
2023-05-01T18:51:37.819Z,14.70
2023-05-01T18:54:05.597Z,14.71
2023-05-01T18:56:32.069Z,14.65
2023-05-01T18:58:58.517Z,14.59
2023-05-01T19:01:25.213Z,14.60
2023-05-01T19:03:51.839Z,14.58
2023-05-01T19:06:18.269Z,14.58
2023-05-01T19:08:44.849Z,14.49
2023-05-01T19:11:11.349Z,14.53
2023-05-01T19:13:37.792Z,14.54
2023-05-01T19:16:04.479Z,14.54
2023-05-01T19:18:33.110Z,14.52
2023-05-01T19:20:59.532Z,14.29
2023-05-01T19:23:27.261Z,14.11
2023-05-01T19:25:53.662Z,14.06
2023-05-01T19:28:20.096Z,14.12
2023-05-01T19:30:46.520Z,14.06
2023-05-01T19:33:12.983Z,14.05
2023-05-01T19:35:39.486Z,14.04
2023-05-01T19:38:06.908Z,14.04
2023-05-01T19:40:33.314Z,14.09
2023-05-01T19:43:00.304Z,14.11
2023-05-01T19:45:26.702Z,14.16
2023-05-01T19:47:53.105Z,14.06
2023-05-01T19:50:19.529Z,14.07
2023-05-01T19:52:45.995Z,13.96
2023-05-01T19:55:13.167Z,13.87
2023-05-01T19:57:39.689Z,13.82
2023-05-01T20:00:07.255Z,13.82
2023-05-01T20:02:33.773Z,13.92
2023-05-01T20:05:00.602Z,13.98
2023-05-01T20:07:28.423Z,13.99
2023-05-01T20:09:54.903Z,13.98
2023-05-01T20:12:22.909Z,13.92
2023-05-01T20:14:49.368Z,13.94
2023-05-01T20:17:15.788Z,13.95
2023-05-01T20:19:42.260Z,13.86
2023-05-01T20:22:08.935Z,13.81
2023-05-01T20:24:35.346Z,13.68
2023-05-01T20:27:03.441Z,13.59
2023-05-01T20:29:29.865Z,13.56
2023-05-01T20:31:58.898Z,13.50
2023-05-01T20:34:25.341Z,13.44
2023-05-01T20:36:52.029Z,13.45
2023-05-01T20:39:18.772Z,13.47
2023-05-01T20:41:45.193Z,13.52
2023-05-01T20:44:11.743Z,13.67
2023-05-01T20:46:38.248Z,13.67
2023-05-01T20:49:08.421Z,13.58
2023-05-01T20:51:34.882Z,13.57
2023-05-01T20:54:01.525Z,13.56
2023-05-01T20:56:28.057Z,13.68
2023-05-01T20:58:54.659Z,13.76
2023-05-01T21:01:21.246Z,13.73
2023-05-01T21:03:47.933Z,13.66
2023-05-01T21:06:15.108Z,13.62
2023-05-01T21:08:41.615Z,13.56
2023-05-01T21:11:08.038Z,13.55
2023-05-01T21:13:34.521Z,13.56
2023-05-01T21:16:01.124Z,13.53
2023-05-01T21:18:31.071Z,13.46
2023-05-01T21:21:01.939Z,13.41
2023-05-01T21:23:30.385Z,13.45
2023-05-01T21:25:56.965Z,13.53
2023-05-01T21:28:23.513Z,13.53
2023-05-01T21:30:50.453Z,13.37
2023-05-01T21:33:19.667Z,13.28
2023-05-01T21:35:46.691Z,13.21
2023-05-01T21:38:13.563Z,13.23
2023-05-01T21:40:42.358Z,13.13
2023-05-01T21:43:09.214Z,13.10
2023-05-01T21:45:40.186Z,13.09
2023-05-01T21:48:13.709Z,13.06
2023-05-01T21:50:40.347Z,13.06
2023-05-01T21:53:06.816Z,13.14
2023-05-01T21:55:33.526Z,13.10
2023-05-01T21:58:00.724Z,13.00
2023-05-01T22:00:28.006Z,12.85
2023-05-01T22:02:54.559Z,12.73
2023-05-01T22:05:23.060Z,12.71
2023-05-01T22:07:51.947Z,12.75
2023-05-01T22:10:19.716Z,12.79
2023-05-01T22:12:48.756Z,12.71
2023-05-01T22:15:15.742Z,12.74
2023-05-01T22:17:42.278Z,12.77
2023-05-01T22:20:09.297Z,12.80
2023-05-01T22:22:36.967Z,12.86
2023-05-01T22:25:04.637Z,12.86
2023-05-01T22:27:32.150Z,12.84
2023-05-01T22:29:58.852Z,12.75
2023-05-01T22:32:25.516Z,12.67
2023-05-01T22:34:52.022Z,12.67
2023-05-01T22:37:19.433Z,12.72
2023-05-01T22:39:45.869Z,12.68
2023-05-01T22:42:12.408Z,12.62
2023-05-01T22:44:39.256Z,12.70
2023-05-01T22:47:06.310Z,12.66
2023-05-01T22:49:32.778Z,12.75
2023-05-01T22:51:59.726Z,12.81
2023-05-01T22:54:26.211Z,12.85
2023-05-01T22:56:52.673Z,12.85
2023-05-01T22:59:19.658Z,12.88
2023-05-01T23:01:46.373Z,12.98
2023-05-01T23:04:13.995Z,13.08
2023-05-01T23:06:40.907Z,13.03
2023-05-01T23:09:07.526Z,12.97
2023-05-01T23:11:34.194Z,12.94
2023-05-01T23:14:01.277Z,12.93
2023-05-01T23:16:28.264Z,12.92
2023-05-01T23:18:55.929Z,12.88
2023-05-01T23:21:22.365Z,12.88
2023-05-01T23:23:48.911Z,12.84
2023-05-01T23:26:28.709Z,12.80
2023-05-01T23:28:55.227Z,12.81
2023-05-01T23:31:29.148Z,12.87
2023-05-01T23:33:55.777Z,12.93
2023-05-01T23:36:22.850Z,12.92
2023-05-01T23:38:49.564Z,12.88
2023-05-01T23:41:16.169Z,12.79
2023-05-01T23:43:42.794Z,12.81
2023-05-01T23:46:09.324Z,12.82
2023-05-01T23:48:37.012Z,12.74
2023-05-01T23:51:03.600Z,12.67
2023-05-01T23:53:30.578Z,12.70
2023-05-01T23:55:57.191Z,12.68
2023-05-01T23:58:24.420Z,12.61
